sensor_id;sensor_type;location;lat;lon;timestamp;temperature;humidity
30148;DHT22;16960;49.404;8.248;2023-05-08T00:02:06;23.60;45.00
30148;DHT22;16960;49.404;8.248;2023-05-08T00:04:32;23.70;45.10
30148;DHT22;16960;49.404;8.248;2023-05-08T00:07:01;23.60;45.00
30148;DHT22;16960;49.404;8.248;2023-05-08T00:09:28;23.60;45.00
30148;DHT22;16960;49.404;8.248;2023-05-08T00:11:55;23.60;45.10
30148;DHT22;16960;49.404;8.248;2023-05-08T00:14:22;23.60;45.00
30148;DHT22;16960;49.404;8.248;2023-05-08T00:16:48;23.60;45.00
30148;DHT22;16960;49.404;8.248;2023-05-08T00:19:15;23.60;45.10
30148;DHT22;16960;49.404;8.248;2023-05-08T00:21:42;23.60;45.10
30148;DHT22;16960;49.404;8.248;2023-05-08T00:24:11;23.60;45.00
30148;DHT22;16960;49.404;8.248;2023-05-08T00:26:37;23.60;45.10
30148;DHT22;16960;49.404;8.248;2023-05-08T00:29:06;23.60;45.10
30148;DHT22;16960;49.404;8.248;2023-05-08T00:31:33;23.60;45.10
30148;DHT22;16960;49.404;8.248;2023-05-08T00:34:00;23.60;45.10
30148;DHT22;16960;49.404;8.248;2023-05-08T00:36:27;23.60;45.10
30148;DHT22;16960;49.404;8.248;2023-05-08T00:38:54;23.60;45.10
30148;DHT22;16960;49.404;8.248;2023-05-08T00:41:22;23.60;45.10
30148;DHT22;16960;49.404;8.248;2023-05-08T00:43:49;23.50;45.20
30148;DHT22;16960;49.404;8.248;2023-05-08T00:46:16;23.60;45.10
30148;DHT22;16960;49.404;8.248;2023-05-08T00:48:44;23.50;45.20
30148;DHT22;16960;49.404;8.248;2023-05-08T00:51:11;23.60;45.20
30148;DHT22;16960;49.404;8.248;2023-05-08T00:53:40;23.50;45.20
30148;DHT22;16960;49.404;8.248;2023-05-08T00:56:11;23.50;45.20
30148;DHT22;16960;49.404;8.248;2023-05-08T00:58:40;23.60;45.20
30148;DHT22;16960;49.404;8.248;2023-05-08T01:01:07;23.50;45.20
30148;DHT22;16960;49.404;8.248;2023-05-08T01:03:35;23.50;45.30
30148;DHT22;16960;49.404;8.248;2023-05-08T01:06:04;23.50;45.30
30148;DHT22;16960;49.404;8.248;2023-05-08T01:08:31;23.50;45.20
30148;DHT22;16960;49.404;8.248;2023-05-08T01:11:06;23.50;45.20
30148;DHT22;16960;49.404;8.248;2023-05-08T01:13:46;23.50;45.20
30148;DHT22;16960;49.404;8.248;2023-05-08T01:16:17;23.50;45.20
30148;DHT22;16960;49.404;8.248;2023-05-08T01:18:52;23.50;45.20
30148;DHT22;16960;49.404;8.248;2023-05-08T01:21:26;23.50;45.30
30148;DHT22;16960;49.404;8.248;2023-05-08T01:33:01;23.50;45.20
30148;DHT22;16960;49.404;8.248;2023-05-08T01:35:38;23.50;45.20
30148;DHT22;16960;49.404;8.248;2023-05-08T01:38:17;23.50;45.20
30148;DHT22;16960;49.404;8.248;2023-05-08T01:40:51;23.50;45.10
30148;DHT22;16960;49.404;8.248;2023-05-08T01:43:25;23.50;45.10
30148;DHT22;16960;49.404;8.248;2023-05-08T01:45:54;23.50;45.10
30148;DHT22;16960;49.404;8.248;2023-05-08T01:48:27;23.50;45.10
30148;DHT22;16960;49.404;8.248;2023-05-08T01:50:59;23.40;45.10
30148;DHT22;16960;49.404;8.248;2023-05-08T01:53:29;23.40;45.10
30148;DHT22;16960;49.404;8.248;2023-05-08T01:56:04;23.40;45.10
30148;DHT22;16960;49.404;8.248;2023-05-08T01:58:34;23.40;45.10
30148;DHT22;16960;49.404;8.248;2023-05-08T02:01:03;23.40;45.10
30148;DHT22;16960;49.404;8.248;2023-05-08T02:03:33;23.40;45.10
30148;DHT22;16960;49.404;8.248;2023-05-08T02:06:01;23.40;45.10
30148;DHT22;16960;49.404;8.248;2023-05-08T02:08:29;23.40;45.10
30148;DHT22;16960;49.404;8.248;2023-05-08T02:10:58;23.40;45.10
30148;DHT22;16960;49.404;8.248;2023-05-08T02:13:26;23.40;45.10
30148;DHT22;16960;49.404;8.248;2023-05-08T02:15:55;23.40;45.10
30148;DHT22;16960;49.404;8.248;2023-05-08T02:18:23;23.40;45.10
30148;DHT22;16960;49.404;8.248;2023-05-08T02:20:53;23.40;45.10
30148;DHT22;16960;49.404;8.248;2023-05-08T02:23:24;23.40;45.10
30148;DHT22;16960;49.404;8.248;2023-05-08T02:25:52;23.40;45.10
30148;DHT22;16960;49.404;8.248;2023-05-08T02:28:20;23.40;45.10
30148;DHT22;16960;49.404;8.248;2023-05-08T02:30:49;23.40;45.10
30148;DHT22;16960;49.404;8.248;2023-05-08T02:33:17;23.40;45.20
30148;DHT22;16960;49.404;8.248;2023-05-08T02:35:47;23.40;45.20
30148;DHT22;16960;49.404;8.248;2023-05-08T02:38:18;23.40;45.20
30148;DHT22;16960;49.404;8.248;2023-05-08T02:40:48;23.30;45.30
30148;DHT22;16960;49.404;8.248;2023-05-08T02:43:16;23.30;45.20
30148;DHT22;16960;49.404;8.248;2023-05-08T02:45:47;23.30;45.30
30148;DHT22;16960;49.404;8.248;2023-05-08T02:48:21;23.30;45.30
30148;DHT22;16960;49.404;8.248;2023-05-08T02:50:56;23.30;45.20
30148;DHT22;16960;49.404;8.248;2023-05-08T02:53:31;23.30;45.30
30148;DHT22;16960;49.404;8.248;2023-05-08T02:56:06;23.40;45.30
30148;DHT22;16960;49.404;8.248;2023-05-08T02:58:39;23.30;45.30
30148;DHT22;16960;49.404;8.248;2023-05-08T03:01:15;23.30;45.30
30148;DHT22;16960;49.404;8.248;2023-05-08T03:03:48;23.30;45.30
30148;DHT22;16960;49.404;8.248;2023-05-08T03:06:21;23.30;45.20
30148;DHT22;16960;49.404;8.248;2023-05-08T03:08:51;23.30;45.30
30148;DHT22;16960;49.404;8.248;2023-05-08T03:11:26;23.30;45.20
30148;DHT22;16960;49.404;8.248;2023-05-08T03:13:56;23.30;45.30
30148;DHT22;16960;49.404;8.248;2023-05-08T03:16:26;23.30;45.20
30148;DHT22;16960;49.404;8.248;2023-05-08T03:19:00;23.30;45.30
30148;DHT22;16960;49.404;8.248;2023-05-08T03:21:30;23.30;45.30
30148;DHT22;16960;49.404;8.248;2023-05-08T03:23:59;23.30;45.30
30148;DHT22;16960;49.404;8.248;2023-05-08T03:26:28;23.30;45.30
30148;DHT22;16960;49.404;8.248;2023-05-08T03:28:55;23.20;45.20
30148;DHT22;16960;49.404;8.248;2023-05-08T03:31:23;23.20;45.20
30148;DHT22;16960;49.404;8.248;2023-05-08T03:33:52;23.20;45.20
30148;DHT22;16960;49.404;8.248;2023-05-08T03:36:20;23.20;45.30
30148;DHT22;16960;49.404;8.248;2023-05-08T03:38:49;23.20;45.30
30148;DHT22;16960;49.404;8.248;2023-05-08T03:41:18;23.20;45.20
30148;DHT22;16960;49.404;8.248;2023-05-08T03:43:45;23.20;45.20
30148;DHT22;16960;49.404;8.248;2023-05-08T03:46:12;23.20;45.30
30148;DHT22;16960;49.404;8.248;2023-05-08T03:48:40;23.20;45.20
30148;DHT22;16960;49.404;8.248;2023-05-08T03:51:08;23.20;46.00
30148;DHT22;16960;49.404;8.248;2023-05-08T03:53:35;23.20;45.30
30148;DHT22;16960;49.404;8.248;2023-05-08T03:56:02;23.20;45.20
30148;DHT22;16960;49.404;8.248;2023-05-08T03:58:36;23.20;45.30
30148;DHT22;16960;49.404;8.248;2023-05-08T04:01:07;23.20;45.20
30148;DHT22;16960;49.404;8.248;2023-05-08T04:03:53;23.20;45.20
30148;DHT22;16960;49.404;8.248;2023-05-08T04:06:24;23.20;45.20
30148;DHT22;16960;49.404;8.248;2023-05-08T04:09:02;23.20;45.20
30148;DHT22;16960;49.404;8.248;2023-05-08T04:11:35;23.20;45.20
30148;DHT22;16960;49.404;8.248;2023-05-08T04:14:07;23.20;45.30
30148;DHT22;16960;49.404;8.248;2023-05-08T04:16:39;23.20;45.20
30148;DHT22;16960;49.404;8.248;2023-05-08T04:19:20;23.20;45.20
30148;DHT22;16960;49.404;8.248;2023-05-08T04:21:49;23.20;45.30
30148;DHT22;16960;49.404;8.248;2023-05-08T04:24:21;23.20;45.20
30148;DHT22;16960;49.404;8.248;2023-05-08T04:26:49;23.20;45.30
30148;DHT22;16960;49.404;8.248;2023-05-08T04:29:17;23.20;45.30
30148;DHT22;16960;49.404;8.248;2023-05-08T04:31:45;23.20;45.30
30148;DHT22;16960;49.404;8.248;2023-05-08T04:34:13;23.20;45.30
30148;DHT22;16960;49.404;8.248;2023-05-08T04:36:40;23.20;45.40
30148;DHT22;16960;49.404;8.248;2023-05-08T04:39:07;23.20;45.50
30148;DHT22;16960;49.404;8.248;2023-05-08T04:41:34;23.20;45.50
30148;DHT22;16960;49.404;8.248;2023-05-08T04:44:02;23.20;45.60
30148;DHT22;16960;49.404;8.248;2023-05-08T04:46:31;23.10;45.60
30148;DHT22;16960;49.404;8.248;2023-05-08T04:48:58;23.20;45.60
30148;DHT22;16960;49.404;8.248;2023-05-08T04:51:24;23.10;45.70
30148;DHT22;16960;49.404;8.248;2023-05-08T04:53:51;23.20;45.60
30148;DHT22;16960;49.404;8.248;2023-05-08T04:56:18;23.10;45.70
30148;DHT22;16960;49.404;8.248;2023-05-08T04:58:46;23.10;45.60
30148;DHT22;16960;49.404;8.248;2023-05-08T05:01:13;23.10;45.60
30148;DHT22;16960;49.404;8.248;2023-05-08T05:03:41;23.10;45.70
30148;DHT22;16960;49.404;8.248;2023-05-08T05:06:08;23.20;45.60
30148;DHT22;16960;49.404;8.248;2023-05-08T05:08:35;23.10;45.60
30148;DHT22;16960;49.404;8.248;2023-05-08T05:11:02;23.10;45.50
30148;DHT22;16960;49.404;8.248;2023-05-08T05:13:29;23.10;45.50
30148;DHT22;16960;49.404;8.248;2023-05-08T05:15:58;23.10;45.40
30148;DHT22;16960;49.404;8.248;2023-05-08T05:18:25;23.10;45.40
30148;DHT22;16960;49.404;8.248;2023-05-08T05:20:53;23.10;45.40
30148;DHT22;16960;49.404;8.248;2023-05-08T05:23:23;23.10;45.40
30148;DHT22;16960;49.404;8.248;2023-05-08T05:25:49;23.10;45.40
30148;DHT22;16960;49.404;8.248;2023-05-08T05:28:16;23.10;45.40
30148;DHT22;16960;49.404;8.248;2023-05-08T05:30:45;23.10;45.30
30148;DHT22;16960;49.404;8.248;2023-05-08T05:33:12;23.10;45.40
30148;DHT22;16960;49.404;8.248;2023-05-08T05:35:39;23.10;45.30
30148;DHT22;16960;49.404;8.248;2023-05-08T05:38:08;23.10;45.30
30148;DHT22;16960;49.404;8.248;2023-05-08T05:40:34;23.10;45.30
30148;DHT22;16960;49.404;8.248;2023-05-08T05:43:01;23.10;45.30
30148;DHT22;16960;49.404;8.248;2023-05-08T05:45:28;23.10;45.40
30148;DHT22;16960;49.404;8.248;2023-05-08T05:47:55;23.10;45.30
30148;DHT22;16960;49.404;8.248;2023-05-08T05:50:22;23.10;45.40
30148;DHT22;16960;49.404;8.248;2023-05-08T05:52:49;23.10;45.50
30148;DHT22;16960;49.404;8.248;2023-05-08T05:55:18;23.10;45.60
30148;DHT22;16960;49.404;8.248;2023-05-08T05:57:44;23.10;45.70
30148;DHT22;16960;49.404;8.248;2023-05-08T06:00:12;23.10;45.90
30148;DHT22;16960;49.404;8.248;2023-05-08T06:02:39;23.00;45.70
30148;DHT22;16960;49.404;8.248;2023-05-08T06:05:08;23.10;45.90
30148;DHT22;16960;49.404;8.248;2023-05-08T06:07:35;23.20;45.90
30148;DHT22;16960;49.404;8.248;2023-05-08T06:10:02;23.10;46.00
30148;DHT22;16960;49.404;8.248;2023-05-08T06:12:31;23.20;45.90
30148;DHT22;16960;49.404;8.248;2023-05-08T06:14:58;23.20;45.60
30148;DHT22;16960;49.404;8.248;2023-05-08T06:17:25;23.30;45.60
30148;DHT22;16960;49.404;8.248;2023-05-08T06:19:52;23.40;45.40
30148;DHT22;16960;49.404;8.248;2023-05-08T06:22:21;23.40;45.10
30148;DHT22;16960;49.404;8.248;2023-05-08T06:24:49;23.50;45.90
30148;DHT22;16960;49.404;8.248;2023-05-08T06:27:18;23.50;44.90
30148;DHT22;16960;49.404;8.248;2023-05-08T06:29:46;23.50;44.80
30148;DHT22;16960;49.404;8.248;2023-05-08T06:32:16;23.60;44.70
30148;DHT22;16960;49.404;8.248;2023-05-08T06:34:43;23.60;44.50
30148;DHT22;16960;49.404;8.248;2023-05-08T06:37:10;23.70;44.50
30148;DHT22;16960;49.404;8.248;2023-05-08T06:39:37;23.80;44.30
30148;DHT22;16960;49.404;8.248;2023-05-08T06:42:04;23.70;44.30
30148;DHT22;16960;49.404;8.248;2023-05-08T06:44:31;23.80;44.30
30148;DHT22;16960;49.404;8.248;2023-05-08T06:46:59;23.80;44.30
30148;DHT22;16960;49.404;8.248;2023-05-08T06:49:26;23.90;44.30
30148;DHT22;16960;49.404;8.248;2023-05-08T06:51:53;23.90;44.30
30148;DHT22;16960;49.404;8.248;2023-05-08T06:54:20;23.90;44.30
30148;DHT22;16960;49.404;8.248;2023-05-08T06:56:47;23.90;44.20
30148;DHT22;16960;49.404;8.248;2023-05-08T06:59:14;23.90;44.10
30148;DHT22;16960;49.404;8.248;2023-05-08T07:01:41;23.90;44.20
30148;DHT22;16960;49.404;8.248;2023-05-08T07:04:09;24.00;44.80
30148;DHT22;16960;49.404;8.248;2023-05-08T07:06:37;24.00;44.00
30148;DHT22;16960;49.404;8.248;2023-05-08T07:09:03;24.00;44.00
30148;DHT22;16960;49.404;8.248;2023-05-08T07:11:30;24.00;44.00
30148;DHT22;16960;49.404;8.248;2023-05-08T07:13:57;24.10;44.20
30148;DHT22;16960;49.404;8.248;2023-05-08T07:16:24;24.00;44.30
30148;DHT22;16960;49.404;8.248;2023-05-08T07:18:51;24.00;44.80
30148;DHT22;16960;49.404;8.248;2023-05-08T07:21:19;24.10;45.00
30148;DHT22;16960;49.404;8.248;2023-05-08T07:23:46;24.10;44.90
30148;DHT22;16960;49.404;8.248;2023-05-08T07:26:16;24.10;44.80
30148;DHT22;16960;49.404;8.248;2023-05-08T07:28:43;24.10;44.80
30148;DHT22;16960;49.404;8.248;2023-05-08T07:31:10;24.00;44.60
30148;DHT22;16960;49.404;8.248;2023-05-08T07:33:37;24.00;44.70
30148;DHT22;16960;49.404;8.248;2023-05-08T07:36:04;24.00;44.80
30148;DHT22;16960;49.404;8.248;2023-05-08T07:38:32;24.00;44.90
30148;DHT22;16960;49.404;8.248;2023-05-08T07:40:59;24.00;44.70
30148;DHT22;16960;49.404;8.248;2023-05-08T07:43:26;24.00;44.70
30148;DHT22;16960;49.404;8.248;2023-05-08T07:45:53;24.00;44.70
30148;DHT22;16960;49.404;8.248;2023-05-08T07:48:20;24.00;44.60
30148;DHT22;16960;49.404;8.248;2023-05-08T07:50:48;24.10;44.80
30148;DHT22;16960;49.404;8.248;2023-05-08T07:53:15;24.10;44.70
30148;DHT22;16960;49.404;8.248;2023-05-08T07:55:44;24.10;44.70
30148;DHT22;16960;49.404;8.248;2023-05-08T07:58:11;24.10;44.60
30148;DHT22;16960;49.404;8.248;2023-05-08T08:00:38;24.10;44.70
30148;DHT22;16960;49.404;8.248;2023-05-08T08:03:05;24.10;44.70
30148;DHT22;16960;49.404;8.248;2023-05-08T08:05:32;24.10;44.60
30148;DHT22;16960;49.404;8.248;2023-05-08T08:07:59;24.10;44.70
30148;DHT22;16960;49.404;8.248;2023-05-08T08:10:26;24.10;44.60
30148;DHT22;16960;49.404;8.248;2023-05-08T08:12:54;24.10;44.50
30148;DHT22;16960;49.404;8.248;2023-05-08T08:15:21;24.10;44.60
30148;DHT22;16960;49.404;8.248;2023-05-08T08:17:48;24.10;44.60
30148;DHT22;16960;49.404;8.248;2023-05-08T08:20:15;24.10;44.50
30148;DHT22;16960;49.404;8.248;2023-05-08T08:22:42;24.10;44.60
30148;DHT22;16960;49.404;8.248;2023-05-08T08:25:09;24.20;44.60
30148;DHT22;16960;49.404;8.248;2023-05-08T08:27:36;24.10;44.50
30148;DHT22;16960;49.404;8.248;2023-05-08T08:30:06;24.20;44.60
30148;DHT22;16960;49.404;8.248;2023-05-08T08:32:33;24.10;44.60
30148;DHT22;16960;49.404;8.248;2023-05-08T08:35:00;24.10;45.40
30148;DHT22;16960;49.404;8.248;2023-05-08T08:37:28;24.20;44.70
30148;DHT22;16960;49.404;8.248;2023-05-08T08:39:55;24.10;44.70
30148;DHT22;16960;49.404;8.248;2023-05-08T08:42:21;24.10;44.70
30148;DHT22;16960;49.404;8.248;2023-05-08T08:44:49;24.10;44.50
30148;DHT22;16960;49.404;8.248;2023-05-08T08:47:18;24.10;44.50
30148;DHT22;16960;49.404;8.248;2023-05-08T08:49:48;24.10;44.50
30148;DHT22;16960;49.404;8.248;2023-05-08T08:52:23;24.00;44.40
30148;DHT22;16960;49.404;8.248;2023-05-08T08:54:50;24.10;44.50
30148;DHT22;16960;49.404;8.248;2023-05-08T08:57:19;24.10;44.60
30148;DHT22;16960;49.404;8.248;2023-05-08T08:59:47;24.10;44.50
30148;DHT22;16960;49.404;8.248;2023-05-08T09:02:17;24.10;44.30
30148;DHT22;16960;49.404;8.248;2023-05-08T09:04:44;24.10;44.30
30148;DHT22;16960;49.404;8.248;2023-05-08T09:07:11;24.10;44.30
30148;DHT22;16960;49.404;8.248;2023-05-08T09:09:39;24.10;44.20
30148;DHT22;16960;49.404;8.248;2023-05-08T09:12:09;24.10;44.30
30148;DHT22;16960;49.404;8.248;2023-05-08T09:14:36;24.10;44.20
30148;DHT22;16960;49.404;8.248;2023-05-08T09:17:03;24.20;44.20
30148;DHT22;16960;49.404;8.248;2023-05-08T09:19:32;24.10;44.20
30148;DHT22;16960;49.404;8.248;2023-05-08T09:21:59;24.20;44.20
30148;DHT22;16960;49.404;8.248;2023-05-08T09:24:54;24.20;44.80
30148;DHT22;16960;49.404;8.248;2023-05-08T09:27:22;24.20;44.10
30148;DHT22;16960;49.404;8.248;2023-05-08T09:29:58;24.20;44.10
30148;DHT22;16960;49.404;8.248;2023-05-08T09:32:26;24.20;44.20
30148;DHT22;16960;49.404;8.248;2023-05-08T09:34:55;24.20;44.10
30148;DHT22;16960;49.404;8.248;2023-05-08T09:37:22;24.20;44.10
30148;DHT22;16960;49.404;8.248;2023-05-08T09:39:49;24.20;44.10
30148;DHT22;16960;49.404;8.248;2023-05-08T09:42:16;24.20;44.40
30148;DHT22;16960;49.404;8.248;2023-05-08T09:44:44;24.20;44.10
30148;DHT22;16960;49.404;8.248;2023-05-08T09:47:12;24.20;44.10
30148;DHT22;16960;49.404;8.248;2023-05-08T09:49:39;24.30;44.10
30148;DHT22;16960;49.404;8.248;2023-05-08T09:52:22;24.20;44.10
30148;DHT22;16960;49.404;8.248;2023-05-08T09:54:56;24.30;44.10
30148;DHT22;16960;49.404;8.248;2023-05-08T09:57:23;24.30;44.10
30148;DHT22;16960;49.404;8.248;2023-05-08T09:59:50;24.30;44.10
30148;DHT22;16960;49.404;8.248;2023-05-08T10:02:17;24.30;44.10
30148;DHT22;16960;49.404;8.248;2023-05-08T10:04:45;24.30;44.10
30148;DHT22;16960;49.404;8.248;2023-05-08T10:07:12;24.30;44.50
30148;DHT22;16960;49.404;8.248;2023-05-08T10:09:56;24.30;44.90
30148;DHT22;16960;49.404;8.248;2023-05-08T10:12:23;24.30;44.80
30148;DHT22;16960;49.404;8.248;2023-05-08T10:14:51;24.30;44.70
30148;DHT22;16960;49.404;8.248;2023-05-08T10:17:24;24.30;44.70
30148;DHT22;16960;49.404;8.248;2023-05-08T10:19:54;24.30;44.60
30148;DHT22;16960;49.404;8.248;2023-05-08T10:22:24;24.30;44.70
30148;DHT22;16960;49.404;8.248;2023-05-08T10:24:55;24.30;44.80
30148;DHT22;16960;49.404;8.248;2023-05-08T10:27:30;24.30;44.80
30148;DHT22;16960;49.404;8.248;2023-05-08T10:30:01;24.30;45.00
30148;DHT22;16960;49.404;8.248;2023-05-08T10:32:33;24.20;45.00
30148;DHT22;16960;49.404;8.248;2023-05-08T10:35:03;24.30;45.10
30148;DHT22;16960;49.404;8.248;2023-05-08T10:37:34;24.30;45.00
30148;DHT22;16960;49.404;8.248;2023-05-08T10:40:04;24.20;44.90
30148;DHT22;16960;49.404;8.248;2023-05-08T10:42:32;24.30;45.20
30148;DHT22;16960;49.404;8.248;2023-05-08T10:44:59;24.30;45.20
30148;DHT22;16960;49.404;8.248;2023-05-08T10:47:32;24.30;45.30
30148;DHT22;16960;49.404;8.248;2023-05-08T10:50:09;24.20;45.10
30148;DHT22;16960;49.404;8.248;2023-05-08T10:52:44;24.20;45.20
30148;DHT22;16960;49.404;8.248;2023-05-08T10:55:23;24.30;45.50
30148;DHT22;16960;49.404;8.248;2023-05-08T10:58:09;24.30;45.30
30148;DHT22;16960;49.404;8.248;2023-05-08T11:01:13;24.30;45.00
30148;DHT22;16960;49.404;8.248;2023-05-08T11:03:42;24.30;44.90
30148;DHT22;16960;49.404;8.248;2023-05-08T11:06:10;24.30;44.80
30148;DHT22;16960;49.404;8.248;2023-05-08T11:08:48;24.30;44.70
30148;DHT22;16960;49.404;8.248;2023-05-08T11:11:35;24.30;44.70
30148;DHT22;16960;49.404;8.248;2023-05-08T11:14:12;24.30;44.50
30148;DHT22;16960;49.404;8.248;2023-05-08T11:17:01;24.30;44.50
30148;DHT22;16960;49.404;8.248;2023-05-08T11:19:29;24.30;44.50
30148;DHT22;16960;49.404;8.248;2023-05-08T11:22:22;24.40;44.50
30148;DHT22;16960;49.404;8.248;2023-05-08T11:24:55;24.40;44.40
30148;DHT22;16960;49.404;8.248;2023-05-08T11:27:37;24.40;44.40
30148;DHT22;16960;49.404;8.248;2023-05-08T11:30:21;24.40;44.30
30148;DHT22;16960;49.404;8.248;2023-05-08T11:32:56;24.40;44.30
30148;DHT22;16960;49.404;8.248;2023-05-08T11:35:42;24.40;44.30
30148;DHT22;16960;49.404;8.248;2023-05-08T11:38:23;24.40;44.20
30148;DHT22;16960;49.404;8.248;2023-05-08T11:40:59;24.50;44.30
30148;DHT22;16960;49.404;8.248;2023-05-08T11:46:19;24.50;44.20
30148;DHT22;16960;49.404;8.248;2023-05-08T11:48:47;24.50;44.30
30148;DHT22;16960;49.404;8.248;2023-05-08T11:51:16;24.50;44.60
30148;DHT22;16960;49.404;8.248;2023-05-08T11:53:45;24.50;44.60
30148;DHT22;16960;49.404;8.248;2023-05-08T11:56:12;24.50;45.20
30148;DHT22;16960;49.404;8.248;2023-05-08T11:58:41;24.50;44.40
30148;DHT22;16960;49.404;8.248;2023-05-08T12:01:09;24.60;44.30
30148;DHT22;16960;49.404;8.248;2023-05-08T12:03:36;24.60;44.30
30148;DHT22;16960;49.404;8.248;2023-05-08T12:06:03;24.60;44.20
30148;DHT22;16960;49.404;8.248;2023-05-08T12:08:30;24.60;44.40
30148;DHT22;16960;49.404;8.248;2023-05-08T12:10:57;24.60;44.40
30148;DHT22;16960;49.404;8.248;2023-05-08T12:13:26;24.60;44.40
30148;DHT22;16960;49.404;8.248;2023-05-08T12:15:56;24.60;44.40
30148;DHT22;16960;49.404;8.248;2023-05-08T12:18:24;24.60;44.40
30148;DHT22;16960;49.404;8.248;2023-05-08T12:20:52;24.60;44.30
30148;DHT22;16960;49.404;8.248;2023-05-08T12:23:19;24.60;44.30
30148;DHT22;16960;49.404;8.248;2023-05-08T12:25:46;24.70;44.40
30148;DHT22;16960;49.404;8.248;2023-05-08T12:28:13;24.70;44.40
30148;DHT22;16960;49.404;8.248;2023-05-08T12:30:41;24.70;45.10
30148;DHT22;16960;49.404;8.248;2023-05-08T12:33:10;24.70;44.50
30148;DHT22;16960;49.404;8.248;2023-05-08T12:35:37;24.60;44.40
30148;DHT22;16960;49.404;8.248;2023-05-08T12:38:06;24.60;44.30
30148;DHT22;16960;49.404;8.248;2023-05-08T12:40:40;24.60;44.40
30148;DHT22;16960;49.404;8.248;2023-05-08T12:43:08;24.60;44.30
30148;DHT22;16960;49.404;8.248;2023-05-08T12:45:36;24.70;44.50
30148;DHT22;16960;49.404;8.248;2023-05-08T12:48:05;24.60;44.40
30148;DHT22;16960;49.404;8.248;2023-05-08T12:50:35;24.60;44.50
30148;DHT22;16960;49.404;8.248;2023-05-08T12:53:02;24.60;44.40
30148;DHT22;16960;49.404;8.248;2023-05-08T12:55:31;24.60;44.40
30148;DHT22;16960;49.404;8.248;2023-05-08T12:57:59;24.60;44.40
30148;DHT22;16960;49.404;8.248;2023-05-08T13:00:34;24.60;44.40
30148;DHT22;16960;49.404;8.248;2023-05-08T13:03:02;24.60;44.50
30148;DHT22;16960;49.404;8.248;2023-05-08T13:05:29;24.60;44.50
30148;DHT22;16960;49.404;8.248;2023-05-08T13:08:01;24.60;44.50
30148;DHT22;16960;49.404;8.248;2023-05-08T13:10:45;24.60;44.50
30148;DHT22;16960;49.404;8.248;2023-05-08T13:13:13;24.60;44.40
30148;DHT22;16960;49.404;8.248;2023-05-08T13:15:40;24.70;44.40
30148;DHT22;16960;49.404;8.248;2023-05-08T13:18:07;24.70;44.40
30148;DHT22;16960;49.404;8.248;2023-05-08T13:20:34;24.70;44.30
30148;DHT22;16960;49.404;8.248;2023-05-08T13:23:03;24.70;44.40
30148;DHT22;16960;49.404;8.248;2023-05-08T13:25:31;24.70;44.60
30148;DHT22;16960;49.404;8.248;2023-05-08T13:27:58;24.70;44.80
30148;DHT22;16960;49.404;8.248;2023-05-08T13:30:25;24.80;45.10
30148;DHT22;16960;49.404;8.248;2023-05-08T13:32:52;24.80;45.90
30148;DHT22;16960;49.404;8.248;2023-05-08T13:35:20;24.80;45.30
30148;DHT22;16960;49.404;8.248;2023-05-08T13:37:47;24.80;45.10
30148;DHT22;16960;49.404;8.248;2023-05-08T13:40:16;24.80;45.30
30148;DHT22;16960;49.404;8.248;2023-05-08T13:42:43;24.80;45.60
30148;DHT22;16960;49.404;8.248;2023-05-08T13:45:11;24.90;45.70
30148;DHT22;16960;49.404;8.248;2023-05-08T13:47:39;24.90;45.20
30148;DHT22;16960;49.404;8.248;2023-05-08T13:50:07;24.90;45.40
30148;DHT22;16960;49.404;8.248;2023-05-08T13:52:35;24.90;45.40
30148;DHT22;16960;49.404;8.248;2023-05-08T13:55:03;24.90;45.40
30148;DHT22;16960;49.404;8.248;2023-05-08T13:57:32;25.00;45.20
30148;DHT22;16960;49.404;8.248;2023-05-08T13:59:59;25.00;45.10
30148;DHT22;16960;49.404;8.248;2023-05-08T14:02:26;25.00;45.10
30148;DHT22;16960;49.404;8.248;2023-05-08T14:04:53;25.00;45.10
30148;DHT22;16960;49.404;8.248;2023-05-08T14:07:20;25.00;44.90
30148;DHT22;16960;49.404;8.248;2023-05-08T14:09:47;25.00;44.90
30148;DHT22;16960;49.404;8.248;2023-05-08T14:12:14;25.10;44.90
30148;DHT22;16960;49.404;8.248;2023-05-08T14:14:42;25.10;44.80
30148;DHT22;16960;49.404;8.248;2023-05-08T14:17:09;25.10;45.20
30148;DHT22;16960;49.404;8.248;2023-05-08T14:19:36;25.00;45.20
30148;DHT22;16960;49.404;8.248;2023-05-08T14:22:03;25.10;45.10
30148;DHT22;16960;49.404;8.248;2023-05-08T14:24:31;25.10;45.00
30148;DHT22;16960;49.404;8.248;2023-05-08T14:26:58;25.10;44.90
30148;DHT22;16960;49.404;8.248;2023-05-08T14:29:26;25.10;45.00
30148;DHT22;16960;49.404;8.248;2023-05-08T14:31:54;25.10;45.20
30148;DHT22;16960;49.404;8.248;2023-05-08T14:34:21;25.10;45.00
30148;DHT22;16960;49.404;8.248;2023-05-08T14:36:48;25.10;45.40
30148;DHT22;16960;49.404;8.248;2023-05-08T14:39:15;25.10;45.50
30148;DHT22;16960;49.404;8.248;2023-05-08T14:41:42;25.10;45.40
30148;DHT22;16960;49.404;8.248;2023-05-08T14:44:09;25.20;45.40
30148;DHT22;16960;49.404;8.248;2023-05-08T14:46:36;25.10;44.80
30148;DHT22;16960;49.404;8.248;2023-05-08T14:49:04;25.20;44.80
30148;DHT22;16960;49.404;8.248;2023-05-08T14:51:31;25.20;44.90
30148;DHT22;16960;49.404;8.248;2023-05-08T14:53:58;25.20;44.80
30148;DHT22;16960;49.404;8.248;2023-05-08T14:56:25;25.20;44.90
30148;DHT22;16960;49.404;8.248;2023-05-08T14:58:52;25.20;44.90
30148;DHT22;16960;49.404;8.248;2023-05-08T15:01:20;25.30;45.30
30148;DHT22;16960;49.404;8.248;2023-05-08T15:03:47;25.30;45.30
30148;DHT22;16960;49.404;8.248;2023-05-08T15:06:19;25.20;45.20
30148;DHT22;16960;49.404;8.248;2023-05-08T15:08:46;25.30;45.40
30148;DHT22;16960;49.404;8.248;2023-05-08T15:11:13;25.30;45.30
30148;DHT22;16960;49.404;8.248;2023-05-08T15:13:40;25.30;45.10
30148;DHT22;16960;49.404;8.248;2023-05-08T15:16:08;25.30;45.00
30148;DHT22;16960;49.404;8.248;2023-05-08T15:18:35;25.40;44.90
30148;DHT22;16960;49.404;8.248;2023-05-08T15:21:03;25.40;45.10
30148;DHT22;16960;49.404;8.248;2023-05-08T15:23:31;25.40;45.90
30148;DHT22;16960;49.404;8.248;2023-05-08T15:25:58;25.40;45.10
30148;DHT22;16960;49.404;8.248;2023-05-08T15:28:25;25.40;45.10
30148;DHT22;16960;49.404;8.248;2023-05-08T15:30:52;25.40;44.90
30148;DHT22;16960;49.404;8.248;2023-05-08T15:33:19;25.40;44.90
30148;DHT22;16960;49.404;8.248;2023-05-08T15:35:46;25.40;44.80
30148;DHT22;16960;49.404;8.248;2023-05-08T15:38:13;25.50;44.90
30148;DHT22;16960;49.404;8.248;2023-05-08T15:40:41;25.40;45.00
30148;DHT22;16960;49.404;8.248;2023-05-08T15:43:08;25.40;45.10
30148;DHT22;16960;49.404;8.248;2023-05-08T15:45:35;25.40;45.10
30148;DHT22;16960;49.404;8.248;2023-05-08T15:48:02;25.40;45.30
30148;DHT22;16960;49.404;8.248;2023-05-08T15:50:29;25.40;45.10
30148;DHT22;16960;49.404;8.248;2023-05-08T15:52:55;25.40;44.90
30148;DHT22;16960;49.404;8.248;2023-05-08T15:55:22;25.50;45.00